Time;durP1;ratioP1;P1;durP2;ratioP2;P2;SDS_P1;SDS_P2;PMS_P1;PMS_P2;Temp;Humidity;BMP_temperature;BMP_pressure;BME280_temperature;BME280_humidity;BME280_pressure;Samples;Min_cycle;Max_cycle;Signal;HPM_P1;HPM_P2
2022/11/08 00:01:33;;;;;;;4.28;1.08;;;12.80;99.90;;;;;;5022779;28;20052;-70
2022/11/08 00:04:00;;;;;;;5.38;1.00;;;12.70;99.90;;;;;;5022684;28;20044;-70
2022/11/08 00:14:40;;;;;;;3.35;1.10;;;12.50;99.90;;;;;;5024786;28;20060;-70
2022/11/08 00:17:06;;;;;;;6.45;1.73;;;12.50;99.90;;;;;;5026844;28;20022;-70
2022/11/08 00:19:31;;;;;;;11.32;2.28;;;12.50;99.90;;;;;;5027776;28;20036;-70
2022/11/08 00:21:57;;;;;;;6.30;1.52;;;12.50;99.90;;;;;;5027935;28;20529;-69
2022/11/08 00:24:22;;;;;;;5.28;0.90;;;12.40;99.90;;;;;;5028313;28;20037;-69
2022/11/08 00:26:48;;;;;;;7.32;0.85;;;12.40;99.90;;;;;;5027541;28;20044;-69
2022/11/08 00:29:13;;;;;;;12.35;1.83;;;12.40;99.90;;;;;;5028937;28;20061;-70
2022/11/08 00:31:39;;;;;;;8.23;1.25;;;12.30;99.90;;;;;;5027281;28;20033;-70
2022/11/08 00:34:05;;;;;;;3.63;0.80;;;12.30;99.90;;;;;;5027163;28;20106;-70
2022/11/08 00:36:30;;;;;;;11.35;1.15;;;12.20;99.90;;;;;;5027016;28;20088;-70
2022/11/08 00:38:56;;;;;;;3.58;0.77;;;12.20;99.90;;;;;;5026284;28;20063;-69
2022/11/08 00:41:21;;;;;;;7.47;0.82;;;12.20;99.90;;;;;;5028459;28;20091;-70
2022/11/08 00:43:47;;;;;;;9.65;1.23;;;12.20;99.90;;;;;;5025270;28;20037;-76
2022/11/08 00:46:12;;;;;;;7.75;1.20;;;12.20;99.90;;;;;;5028241;28;20049;-70
2022/11/08 00:48:38;;;;;;;7.68;0.60;;;12.10;99.90;;;;;;5028354;28;20029;-69
2022/11/08 00:51:06;;;;;;;11.57;1.13;;;12.10;99.90;;;;;;5027466;28;20048;-70
2022/11/08 00:53:35;;;;;;;3.10;0.80;;;12.00;99.90;;;;;;5027482;28;20041;-69
2022/11/08 00:56:10;;;;;;;6.75;0.77;;;12.10;99.90;;;;;;5027602;28;20830;-69
2022/11/08 00:58:36;;;;;;;7.07;1.58;;;12.00;99.90;;;;;;5027059;28;20067;-69
2022/11/08 01:01:12;;;;;;;2.97;0.65;;;12.00;99.90;;;;;;5025968;28;20449;-70
2022/11/08 01:03:37;;;;;;;6.43;0.80;;;12.00;99.90;;;;;;5025797;28;20190;-68
2022/11/08 01:06:05;;;;;;;8.40;0.80;;;12.00;99.90;;;;;;5026932;28;20092;-68
2022/11/08 01:08:30;;;;;;;3.05;1.10;;;11.90;99.90;;;;;;5027844;28;20034;-70
2022/11/08 01:10:56;;;;;;;5.70;0.90;;;11.90;99.90;;;;;;5025799;28;20091;-69
2022/11/08 01:13:22;;;;;;;7.53;1.10;;;11.90;99.90;;;;;;5027852;28;20547;-69
2022/11/08 01:15:47;;;;;;;4.07;1.00;;;11.90;99.90;;;;;;5025487;28;20036;-71
2022/11/08 01:18:15;;;;;;;7.15;1.05;;;11.90;99.90;;;;;;5026302;28;20041;-69
2022/11/08 01:20:45;;;;;;;4.03;0.93;;;11.90;99.90;;;;;;5027597;28;20048;-69
2022/11/08 01:23:12;;;;;;;7.20;0.88;;;11.90;99.90;;;;;;5026681;28;20045;-69
2022/11/08 01:25:40;;;;;;;4.80;0.88;;;11.90;99.90;;;;;;5027640;28;20048;-70
2022/11/08 01:28:06;;;;;;;4.78;1.13;;;11.90;99.90;;;;;;5024539;28;20053;-70
2022/11/08 01:30:36;;;;;;;6.28;1.00;;;11.90;99.90;;;;;;5026251;28;20042;-69
2022/11/08 01:33:02;;;;;;;6.53;1.23;;;11.90;99.90;;;;;;5026042;28;20085;-69
2022/11/08 01:35:29;;;;;;;5.80;1.23;;;11.80;99.90;;;;;;5026820;28;20511;-70
2022/11/08 01:37:55;;;;;;;7.53;1.27;;;11.80;99.90;;;;;;5026983;28;20111;-70
2022/11/08 01:40:21;;;;;;;6.15;0.95;;;11.80;99.90;;;;;;5027474;28;20030;-68
2022/11/08 01:42:46;;;;;;;8.68;1.15;;;11.80;99.90;;;;;;5026731;28;20041;-69
2022/11/08 01:45:12;;;;;;;3.63;1.25;;;11.80;99.90;;;;;;5024733;28;20036;-70
2022/11/08 01:47:37;;;;;;;16.88;1.23;;;11.80;99.90;;;;;;5026814;28;20034;-68
2022/11/08 01:50:14;;;;;;;3.17;0.80;;;11.90;99.90;;;;;;5026696;28;20414;-69
2022/11/08 01:52:44;;;;;;;7.68;1.67;;;11.80;99.90;;;;;;5026959;28;20053;-68
2022/11/08 01:55:21;;;;;;;9.07;1.38;;;11.90;99.90;;;;;;5026323;28;20025;-69
2022/11/08 01:57:47;;;;;;;4.55;1.08;;;11.90;99.90;;;;;;5014753;28;20037;-74
2022/11/08 02:00:13;;;;;;;6.85;1.50;;;11.90;99.90;;;;;;5026870;28;20293;-69
2022/11/08 02:02:41;;;;;;;4.57;1.48;;;11.90;99.90;;;;;;5026748;28;20038;-69
2022/11/08 02:05:23;;;;;;;7.13;0.73;;;11.90;99.90;;;;;;5025851;28;20029;-69
2022/11/08 02:07:57;;;;;;;3.17;0.93;;;11.90;99.90;;;;;;5022933;28;20037;-70
2022/11/08 02:10:27;;;;;;;3.58;0.90;;;11.90;99.90;;;;;;5024165;28;20041;-68
2022/11/08 02:12:53;;;;;;;2.65;0.75;;;12.00;99.90;;;;;;5023868;28;20460;-71
2022/11/08 02:15:22;;;;;;;4.93;0.70;;;11.90;99.90;;;;;;5026549;28;20034;-69
2022/11/08 02:17:47;;;;;;;5.50;0.85;;;11.90;99.90;;;;;;5025859;28;20509;-72
2022/11/08 02:20:13;;;;;;;3.67;0.93;;;11.90;99.90;;;;;;5026798;28;20041;-70
2022/11/08 02:23:01;;;;;;;6.07;1.15;;;11.90;99.90;;;;;;5023515;28;20069;-70
2022/11/08 02:25:27;;;;;;;6.65;1.17;;;11.90;99.90;;;;;;5021984;28;20044;-68
2022/11/08 02:27:52;;;;;;;5.43;1.15;;;11.90;99.90;;;;;;5025440;28;20034;-69
2022/11/08 02:30:18;;;;;;;9.73;1.48;;;11.90;99.90;;;;;;5024864;28;20045;-70
2022/11/08 02:32:45;;;;;;;4.43;0.90;;;11.80;99.90;;;;;;5024321;28;20486;-69
2022/11/08 02:35:15;;;;;;;3.25;0.70;;;11.80;99.90;;;;;;5021103;28;20049;-69
2022/11/08 02:37:41;;;;;;;3.43;0.87;;;11.80;99.90;;;;;;5025439;28;20045;-70
2022/11/08 02:40:07;;;;;;;4.05;0.80;;;11.80;99.90;;;;;;5022493;28;20033;-70
2022/11/08 02:42:33;;;;;;;7.82;1.10;;;11.70;99.90;;;;;;5023409;28;20029;-70
2022/11/08 02:44:58;;;;;;;5.95;1.35;;;11.70;99.90;;;;;;5022984;28;20414;-70
2022/11/08 02:47:24;;;;;;;8.80;1.73;;;11.70;99.90;;;;;;5024415;28;20033;-70
2022/11/08 02:49:50;;;;;;;3.10;0.70;;;11.70;99.90;;;;;;5025371;28;20041;-70
2022/11/08 02:52:15;;;;;;;3.03;0.73;;;11.70;99.90;;;;;;5022933;28;20090;-70
2022/11/08 02:54:41;;;;;;;5.15;1.00;;;11.70;99.90;;;;;;5015638;28;20037;-70
2022/11/08 02:57:07;;;;;;;5.82;0.80;;;11.70;99.90;;;;;;5023592;28;22779;-70
2022/11/08 02:59:32;;;;;;;2.17;0.57;;;11.70;99.90;;;;;;5025016;28;20071;-71
2022/11/08 03:01:58;;;;;;;9.43;1.15;;;11.70;99.90;;;;;;5022721;28;20044;-71
2022/11/08 03:04:23;;;;;;;13.23;1.92;;;11.60;99.90;;;;;;5023268;28;20846;-70
2022/11/08 03:06:49;;;;;;;2.17;0.68;;;11.60;99.90;;;;;;5022373;28;20041;-69
2022/11/08 03:09:14;;;;;;;4.70;0.70;;;11.60;99.90;;;;;;5021692;28;20282;-70
2022/11/08 03:11:40;;;;;;;3.72;0.60;;;11.60;99.90;;;;;;5025082;28;20484;-69
2022/11/08 03:14:06;;;;;;;3.60;0.77;;;11.60;99.90;;;;;;5019176;28;20079;-71
2022/11/08 03:16:32;;;;;;;8.10;1.00;;;11.60;99.90;;;;;;5013479;28;20045;-69
2022/11/08 03:18:57;;;;;;;5.30;1.00;;;11.60;99.90;;;;;;5024719;28;20490;-69
2022/11/08 03:21:23;;;;;;;1.92;0.50;;;11.60;99.90;;;;;;5025451;28;20486;-68
2022/11/08 03:23:48;;;;;;;3.58;0.88;;;11.60;99.90;;;;;;5023855;28;20095;-70
2022/11/08 03:26:14;;;;;;;4.63;0.77;;;11.60;99.90;;;;;;5025493;28;20037;-69
2022/11/08 03:28:39;;;;;;;2.88;0.70;;;11.50;99.90;;;;;;5025495;28;20694;-70
2022/11/08 03:31:05;;;;;;;5.03;1.13;;;11.60;99.90;;;;;;5024408;28;20600;-70
2022/11/08 03:33:30;;;;;;;4.38;0.60;;;11.50;99.90;;;;;;5024343;28;20048;-69
2022/11/08 03:35:56;;;;;;;4.82;1.02;;;11.50;99.90;;;;;;5024455;28;20457;-70
2022/11/08 03:38:22;;;;;;;5.88;1.25;;;11.50;99.90;;;;;;5023713;28;20071;-69
2022/11/08 03:40:47;;;;;;;2.50;0.70;;;11.60;99.90;;;;;;5023781;28;20128;-74
2022/11/08 03:43:13;;;;;;;4.78;0.80;;;11.60;99.90;;;;;;5023770;28;20041;-69
2022/11/08 03:45:39;;;;;;;3.08;0.98;;;11.60;99.90;;;;;;5022728;28;20731;-69
2022/11/08 03:48:05;;;;;;;6.93;0.98;;;11.50;99.90;;;;;;5023100;28;20033;-70
2022/11/08 03:50:30;;;;;;;2.40;0.98;;;11.50;99.90;;;;;;5025596;28;20769;-70
2022/11/08 03:52:56;;;;;;;5.35;0.70;;;11.50;99.90;;;;;;5026525;28;20030;-69
2022/11/08 03:55:24;;;;;;;4.03;0.60;;;11.50;99.90;;;;;;5027272;28;20052;-69
2022/11/08 03:57:50;;;;;;;4.32;0.70;;;11.60;99.90;;;;;;5027145;28;20034;-69
2022/11/08 04:03:38;;;;;;;3.20;0.80;;;11.70;99.90;;;;;;5024358;28;20048;-69
2022/11/08 04:06:04;;;;;;;5.55;1.55;;;11.70;99.90;;;;;;5028122;28;20037;-69
2022/11/08 04:08:30;;;;;;;4.97;0.63;;;11.70;99.90;;;;;;5027355;28;20041;-70
2022/11/08 04:15:13;;;;;;;6.78;0.70;;;11.70;99.90;;;;;;5026891;28;20037;-71
2022/11/08 04:16:26;;;;;;;5.85;0.80;;;11.70;99.90;;;;;;5027687;28;20516;-69
2022/11/08 04:21:36;;;;;;;9.45;0.80;;;11.60;99.90;;;;;;5024563;28;20050;-69
2022/11/08 04:24:02;;;;;;;4.55;0.80;;;11.60;99.90;;;;;;5025386;28;20041;-68
2022/11/08 04:26:28;;;;;;;4.80;1.38;;;11.70;99.90;;;;;;5027867;28;20494;-69
2022/11/08 04:28:53;;;;;;;5.00;0.70;;;11.70;99.90;;;;;;5026175;28;20083;-71
2022/11/08 04:31:19;;;;;;;5.15;0.85;;;11.70;99.90;;;;;;5028879;28;20037;-69
2022/11/08 04:33:45;;;;;;;5.13;0.60;;;11.70;99.90;;;;;;5028015;28;20052;-69
2022/11/08 04:36:13;;;;;;;2.72;1.30;;;11.70;99.90;;;;;;5026186;28;20033;-70
2022/11/08 04:38:39;;;;;;;7.65;1.05;;;11.70;99.90;;;;;;5028806;28;20041;-68
2022/11/08 04:41:10;;;;;;;4.40;0.80;;;11.70;99.90;;;;;;5022321;28;20045;-69
2022/11/08 04:43:36;;;;;;;4.38;0.50;;;11.80;99.90;;;;;;5026407;28;20041;-69
2022/11/08 04:46:04;;;;;;;2.80;0.60;;;11.80;99.90;;;;;;5025604;28;20033;-69
2022/11/08 04:48:30;;;;;;;2.10;0.47;;;11.80;99.90;;;;;;5026843;28;20125;-69
2022/11/08 04:51:21;;;;;;;2.50;1.13;;;11.70;99.90;;;;;;5026172;28;20116;-69
2022/11/08 04:53:48;;;;;;;3.85;0.50;;;11.80;99.90;;;;;;5025718;28;20046;-70
2022/11/08 04:56:19;;;;;;;3.20;0.80;;;11.70;99.90;;;;;;5026159;28;20076;-68
2022/11/08 04:58:47;;;;;;;2.08;0.90;;;11.70;99.90;;;;;;5024212;28;20079;-69
2022/11/08 05:01:16;;;;;;;5.32;1.52;;;11.70;99.90;;;;;;5026867;28;20740;-70
2022/11/08 05:03:41;;;;;;;1.92;0.73;;;11.70;99.90;;;;;;5025232;28;20044;-69
2022/11/08 05:06:13;;;;;;;2.97;0.50;;;11.70;99.90;;;;;;5025208;28;20029;-70
2022/11/08 05:08:39;;;;;;;4.70;0.70;;;11.70;99.90;;;;;;5026978;28;20041;-69
2022/11/08 05:11:13;;;;;;;1.55;0.50;;;11.70;99.90;;;;;;5026900;28;20095;-70
2022/11/08 05:13:39;;;;;;;2.00;0.50;;;11.70;99.90;;;;;;5025862;28;20069;-69
2022/11/08 05:16:07;;;;;;;2.88;0.75;;;11.70;99.90;;;;;;5027080;28;20077;-70
2022/11/08 05:18:33;;;;;;;5.05;0.60;;;11.60;99.90;;;;;;5022595;28;20565;-68
2022/11/08 05:23:45;;;;;;;7.00;0.70;;;11.60;99.90;;;;;;5024464;28;20401;-69
2022/11/08 05:26:11;;;;;;;2.70;0.85;;;11.60;99.90;;;;;;5026654;28;20037;-69
2022/11/08 05:28:39;;;;;;;4.15;0.75;;;11.60;99.90;;;;;;5027657;28;20031;-69
2022/11/08 05:31:05;;;;;;;3.92;0.55;;;11.60;99.90;;;;;;5024351;28;20061;-68
2022/11/08 05:33:31;;;;;;;5.35;0.70;;;11.70;99.90;;;;;;5025082;28;20034;-69
2022/11/08 05:36:00;;;;;;;6.97;0.47;;;11.60;99.90;;;;;;5025773;28;20063;-68
2022/11/08 05:38:26;;;;;;;1.20;0.60;;;11.60;99.90;;;;;;5027154;28;20040;-69
2022/11/08 05:40:51;;;;;;;1.17;0.40;;;11.60;99.90;;;;;;5024253;28;20037;-69
2022/11/08 05:43:17;;;;;;;3.17;0.98;;;11.60;99.90;;;;;;5026654;28;20068;-69
2022/11/08 05:45:45;;;;;;;3.65;0.63;;;11.60;99.90;;;;;;5026385;28;20123;-68
2022/11/08 05:48:10;;;;;;;2.53;0.50;;;11.60;99.90;;;;;;5024314;28;20444;-69
2022/11/08 05:50:36;;;;;;;6.18;0.80;;;11.60;99.90;;;;;;5025207;28;20029;-69
2022/11/08 05:53:01;;;;;;;1.92;0.85;;;11.60;99.90;;;;;;5025782;28;20486;-68
2022/11/08 05:55:27;;;;;;;5.97;0.65;;;11.60;99.90;;;;;;5024597;28;20749;-70
2022/11/08 05:57:53;;;;;;;2.83;0.47;;;11.60;99.90;;;;;;5024461;28;20037;-71
2022/11/08 06:00:19;;;;;;;4.75;0.50;;;11.60;99.90;;;;;;5026447;28;20099;-69
2022/11/08 06:02:44;;;;;;;6.18;0.93;;;11.60;99.90;;;;;;5024743;28;20038;-68
2022/11/08 06:05:10;;;;;;;3.42;0.80;;;11.60;99.90;;;;;;5015807;28;20036;-69
2022/11/08 06:07:36;;;;;;;2.58;0.30;;;11.50;99.90;;;;;;5021525;28;20033;-69
2022/11/08 06:10:02;;;;;;;5.95;0.60;;;11.50;99.90;;;;;;5021157;28;20022;-69
2022/11/08 06:12:28;;;;;;;2.53;0.50;;;11.50;99.90;;;;;;5019553;28;20037;-69
2022/11/08 06:14:53;;;;;;;1.55;0.55;;;11.60;99.90;;;;;;5017972;28;20099;-70
2022/11/08 06:17:19;;;;;;;3.85;0.52;;;11.50;99.90;;;;;;5016574;28;20033;-68
2022/11/08 06:19:45;;;;;;;2.40;0.52;;;11.50;99.90;;;;;;5016404;28;20057;-69
2022/11/08 06:22:10;;;;;;;7.20;1.25;;;11.50;99.90;;;;;;5017557;28;20177;-70
2022/11/08 06:24:36;;;;;;;3.67;0.70;;;11.60;99.90;;;;;;5017786;28;20768;-69
2022/11/08 06:27:02;;;;;;;4.43;0.60;;;11.50;99.90;;;;;;5017709;28;20069;-68
2022/11/08 06:29:27;;;;;;;2.42;0.47;;;11.50;99.90;;;;;;5021241;28;20063;-69
2022/11/08 06:31:53;;;;;;;1.17;0.40;;;11.60;99.90;;;;;;5015122;28;20054;-71
2022/11/08 06:34:18;;;;;;;6.20;0.60;;;11.50;99.90;;;;;;5020694;28;20036;-69
2022/11/08 06:36:44;;;;;;;1.52;0.50;;;11.60;99.90;;;;;;5020547;28;20072;-68
2022/11/08 06:39:10;;;;;;;5.28;0.50;;;11.60;99.90;;;;;;5020433;28;20041;-69
2022/11/08 06:41:35;;;;;;;3.35;1.20;;;11.50;99.90;;;;;;5015736;28;20033;-69
2022/11/08 06:44:01;;;;;;;3.13;0.73;;;11.50;99.90;;;;;;5018542;28;20064;-69
2022/11/08 06:46:27;;;;;;;6.32;0.52;;;11.50;99.90;;;;;;5016023;28;20052;-69
2022/11/08 06:48:52;;;;;;;2.53;0.47;;;11.60;99.90;;;;;;5014330;28;20029;-70
2022/11/08 06:51:18;;;;;;;2.45;0.68;;;11.50;99.90;;;;;;5019472;28;20037;-71
2022/11/08 06:53:44;;;;;;;2.20;0.75;;;11.50;99.90;;;;;;5015628;28;20062;-68
2022/11/08 06:56:10;;;;;;;1.75;0.60;;;11.60;99.90;;;;;;5016578;28;20183;-68
2022/11/08 06:58:36;;;;;;;6.63;0.60;;;11.60;99.90;;;;;;5018492;28;20753;-69
2022/11/08 07:01:04;;;;;;;6.65;0.70;;;11.60;99.90;;;;;;5018817;28;20728;-71
2022/11/08 07:03:30;;;;;;;5.05;1.00;;;11.70;99.90;;;;;;5015432;28;20033;-69
2022/11/08 07:05:55;;;;;;;1.80;0.52;;;11.70;99.90;;;;;;5014353;28;20096;-69
2022/11/08 07:08:21;;;;;;;1.33;0.75;;;11.70;99.90;;;;;;5021319;28;20041;-69
2022/11/08 07:10:46;;;;;;;1.33;0.63;;;11.70;99.90;;;;;;5017083;28;20029;-70
2022/11/08 07:13:13;;;;;;;3.13;0.50;;;11.60;99.90;;;;;;5016713;28;20033;-70
2022/11/08 07:15:39;;;;;;;7.25;0.73;;;11.70;99.90;;;;;;5022997;28;20048;-69
2022/11/08 07:18:11;;;;;;;3.15;0.43;;;11.60;99.90;;;;;;5022764;28;20452;-69
2022/11/08 07:20:38;;;;;;;1.85;0.50;;;11.60;99.90;;;;;;5025974;28;20033;-70
2022/11/08 07:23:04;;;;;;;3.42;0.60;;;11.70;99.90;;;;;;5024227;28;20152;-69
2022/11/08 07:25:30;;;;;;;3.20;0.45;;;11.70;99.90;;;;;;5024957;28;20462;-68
2022/11/08 07:28:04;;;;;;;3.53;0.73;;;11.60;99.90;;;;;;5023160;28;20025;-69
2022/11/08 07:30:30;;;;;;;4.03;0.73;;;11.60;99.90;;;;;;5020700;28;20525;-68
2022/11/08 07:32:57;;;;;;;6.05;0.60;;;11.60;99.90;;;;;;5022647;28;20044;-68
2022/11/08 07:35:23;;;;;;;4.18;0.65;;;11.60;99.90;;;;;;5025286;28;20033;-67
2022/11/08 07:37:49;;;;;;;4.90;0.60;;;11.70;99.90;;;;;;5024595;28;20037;-70
2022/11/08 07:40:15;;;;;;;13.82;0.80;;;11.70;99.90;;;;;;5024622;28;20151;-70
2022/11/08 07:42:41;;;;;;;2.38;0.60;;;11.80;99.90;;;;;;5024944;28;20575;-71
2022/11/08 07:45:08;;;;;;;1.60;0.60;;;11.70;99.90;;;;;;5022392;28;20037;-68
2022/11/08 07:47:34;;;;;;;1.80;0.40;;;11.80;99.90;;;;;;5023500;28;20048;-70
2022/11/08 07:49:59;;;;;;;12.35;1.05;;;11.80;99.90;;;;;;5024234;28;20025;-69
2022/11/08 07:52:25;;;;;;;4.85;0.45;;;11.80;99.90;;;;;;5024759;28;20486;-68
2022/11/08 07:54:50;;;;;;;3.70;0.65;;;11.80;99.90;;;;;;5024097;28;20531;-70
2022/11/08 07:57:16;;;;;;;4.47;0.57;;;11.80;99.90;;;;;;5024821;28;20083;-70
2022/11/08 07:59:42;;;;;;;3.47;1.33;;;11.80;99.90;;;;;;5025342;28;20060;-68
2022/11/08 08:02:12;;;;;;;3.15;0.85;;;11.80;99.90;;;;;;5022521;28;20744;-70
2022/11/08 08:04:37;;;;;;;2.55;1.00;;;11.80;99.90;;;;;;5024642;28;20128;-70
2022/11/08 08:07:03;;;;;;;1.48;0.93;;;11.80;99.90;;;;;;5022468;28;20831;-69
2022/11/08 08:09:29;;;;;;;2.40;0.43;;;11.80;99.90;;;;;;5023631;28;20041;-69
2022/11/08 08:11:55;;;;;;;3.28;0.43;;;11.90;99.90;;;;;;5023636;28;20440;-70
2022/11/08 08:14:21;;;;;;;1.95;0.65;;;11.90;99.90;;;;;;5022538;28;20402;-70
2022/11/08 08:16:46;;;;;;;2.05;0.40;;;11.90;99.90;;;;;;5024995;28;20041;-69
2022/11/08 08:19:12;;;;;;;3.50;0.30;;;11.90;99.90;;;;;;5022241;28;20033;-70
2022/11/08 08:21:37;;;;;;;3.40;0.70;;;12.00;99.90;;;;;;5024825;28;20049;-69
2022/11/08 08:24:04;;;;;;;1.80;0.32;;;12.00;99.90;;;;;;5021608;28;20041;-69
2022/11/08 08:26:30;;;;;;;1.63;0.60;;;12.00;99.90;;;;;;5023587;28;20041;-69
2022/11/08 08:28:55;;;;;;;6.25;0.60;;;12.10;99.90;;;;;;5023769;28;20497;-70
2022/11/08 08:31:21;;;;;;;2.50;0.85;;;12.10;99.90;;;;;;5020771;28;20099;-69
2022/11/08 08:33:46;;;;;;;1.35;0.30;;;12.20;99.90;;;;;;5024160;28;20040;-69
2022/11/08 08:36:12;;;;;;;5.75;0.82;;;12.20;99.90;;;;;;5023799;28;20049;-69
2022/11/08 08:38:38;;;;;;;6.20;1.17;;;12.30;99.90;;;;;;5028346;28;20498;-68
2022/11/08 08:41:04;;;;;;;1.95;0.68;;;12.30;99.90;;;;;;5026128;28;20037;-70
2022/11/08 08:43:33;;;;;;;1.20;0.50;;;12.40;99.90;;;;;;5027651;28;20041;-69
2022/11/08 08:46:04;;;;;;;5.50;0.60;;;12.40;99.90;;;;;;5025661;28;20452;-69
2022/11/08 08:48:30;;;;;;;0.95;0.30;;;12.50;99.90;;;;;;5028644;28;20049;-69
2022/11/08 08:50:56;;;;;;;1.20;0.40;;;12.50;99.90;;;;;;5027147;28;20029;-71
2022/11/08 08:53:22;;;;;;;1.98;0.38;;;12.60;99.90;;;;;;5026225;28;20045;-69
2022/11/08 08:55:51;;;;;;;2.22;0.60;;;12.60;99.90;;;;;;5023680;28;20640;-69
2022/11/08 08:58:17;;;;;;;3.08;0.30;;;12.80;99.90;;;;;;5026119;28;20129;-69
2022/11/08 09:00:42;;;;;;;2.25;0.40;;;12.80;99.90;;;;;;5023938;28;20160;-68
2022/11/08 09:03:10;;;;;;;3.78;1.33;;;12.80;99.90;;;;;;5026646;28;20116;-69
2022/11/08 09:05:36;;;;;;;1.13;0.40;;;12.90;99.90;;;;;;5026058;28;20034;-69
2022/11/08 09:08:02;;;;;;;4.53;0.70;;;12.90;99.90;;;;;;5026963;28;20036;-70
2022/11/08 09:10:29;;;;;;;2.17;0.50;;;12.90;99.90;;;;;;5021782;28;20029;-69
2022/11/08 09:12:55;;;;;;;2.13;0.40;;;12.90;99.90;;;;;;5021804;28;20401;-69
2022/11/08 09:15:21;;;;;;;2.92;0.43;;;12.80;99.90;;;;;;5025829;28;20049;-70
2022/11/08 09:17:46;;;;;;;1.73;0.70;;;12.90;99.90;;;;;;5027681;28;20048;-68
2022/11/08 09:20:13;;;;;;;1.38;0.60;;;12.80;99.90;;;;;;5025147;28;20029;-69
2022/11/08 09:22:39;;;;;;;1.27;0.30;;;12.90;99.90;;;;;;5027511;28;20293;-70
2022/11/08 09:25:05;;;;;;;1.27;0.52;;;12.90;99.90;;;;;;5024926;28;20207;-70
2022/11/08 09:27:31;;;;;;;3.05;0.57;;;12.90;99.90;;;;;;5026234;28;20164;-70
2022/11/08 09:30:00;;;;;;;3.80;0.95;;;13.00;99.90;;;;;;5026316;28;20038;-68
2022/11/08 09:32:27;;;;;;;3.70;0.75;;;12.90;99.90;;;;;;5027044;28;20034;-68
2022/11/08 09:34:54;;;;;;;3.22;0.75;;;12.90;99.90;;;;;;5024871;28;20045;-69
2022/11/08 09:37:20;;;;;;;2.22;0.35;;;12.90;99.90;;;;;;5025838;28;20052;-69
2022/11/08 09:39:45;;;;;;;2.10;0.47;;;13.00;99.90;;;;;;5027122;28;20551;-69
2022/11/08 09:42:45;;;;;;;2.95;0.60;;;13.00;99.90;;;;;;5026485;28;20049;-68
2022/11/08 09:45:42;;;;;;;2.55;0.50;;;13.10;99.90;;;;;;5024985;28;20055;-68
2022/11/08 09:48:20;;;;;;;4.45;0.90;;;13.10;99.90;;;;;;5026068;28;20029;-70
2022/11/08 09:50:48;;;;;;;1.45;0.40;;;13.20;99.90;;;;;;5027062;28;20042;-71
2022/11/08 09:53:33;;;;;;;3.88;0.60;;;13.30;99.90;;;;;;5024298;28;20030;-69
2022/11/08 09:56:05;;;;;;;4.03;0.47;;;13.40;99.90;;;;;;5019700;28;20041;-68
2022/11/08 09:59:08;;;;;;;6.22;0.60;;;13.50;99.90;;;;;;5025735;28;20037;-68
2022/11/08 10:01:35;;;;;;;3.22;0.47;;;13.50;99.90;;;;;;5011668;28;20091;-68
2022/11/08 10:04:09;;;;;;;2.33;0.80;;;13.50;99.90;;;;;;5023798;28;20037;-69
2022/11/08 10:06:45;;;;;;;2.28;0.50;;;13.40;99.90;;;;;;5025278;28;20056;-68
2022/11/08 10:09:48;;;;;;;0.93;0.60;;;13.40;99.90;;;;;;5025806;28;20533;-69
2022/11/08 10:12:42;;;;;;;1.98;0.40;;;13.40;99.90;;;;;;5026149;28;20122;-69
2022/11/08 10:15:16;;;;;;;2.92;0.47;;;13.50;99.90;;;;;;5024297;28;20034;-68
2022/11/08 10:18:17;;;;;;;1.95;0.50;;;13.60;99.90;;;;;;5026604;28;20521;-69
2022/11/08 10:20:58;;;;;;;4.45;0.52;;;13.60;99.90;;;;;;5004203;28;20065;-70
2022/11/08 10:23:40;;;;;;;1.40;0.55;;;13.70;99.90;;;;;;5018503;28;20033;-69
2022/11/08 10:26:16;;;;;;;1.30;0.40;;;13.60;99.90;;;;;;5023873;28;20031;-69
2022/11/08 10:28:49;;;;;;;2.00;0.47;;;13.60;99.90;;;;;;5026298;28;20030;-71
2022/11/08 10:31:16;;;;;;;1.40;0.45;;;13.60;99.90;;;;;;5021559;28;20025;-71
2022/11/08 10:33:54;;;;;;;2.33;0.50;;;13.50;99.90;;;;;;5023749;28;20128;-69
2022/11/08 10:36:26;;;;;;;2.30;0.50;;;13.50;99.90;;;;;;5022144;28;20520;-69
2022/11/08 10:39:10;;;;;;;2.72;0.52;;;13.50;99.90;;;;;;5025213;28;20075;-70
2022/11/08 10:41:54;;;;;;;3.83;0.68;;;13.50;99.90;;;;;;5024981;28;20036;-68
2022/11/08 10:44:23;;;;;;;3.05;0.70;;;13.50;99.90;;;;;;5020391;28;20037;-69
2022/11/08 10:46:54;;;;;;;4.28;0.70;;;13.50;99.90;;;;;;5024743;28;20069;-68
2022/11/08 10:49:25;;;;;;;1.48;0.47;;;13.50;99.90;;;;;;5025687;28;20071;-68
2022/11/08 10:51:59;;;;;;;5.22;0.50;;;13.60;99.90;;;;;;5023700;28;20060;-67
2022/11/08 10:54:40;;;;;;;0.95;0.40;;;13.80;99.90;;;;;;5025200;28;20044;-70
2022/11/08 10:57:06;;;;;;;2.40;0.75;;;13.80;99.90;;;;;;5023288;28;20065;-68
2022/11/08 10:59:32;;;;;;;1.08;0.40;;;13.90;99.90;;;;;;5024686;28;20037;-68
2022/11/08 11:01:58;;;;;;;1.50;0.63;;;13.90;99.90;;;;;;5022346;28;20044;-69
2022/11/08 11:04:30;;;;;;;1.40;0.40;;;14.00;99.90;;;;;;5025427;28;20037;-68
2022/11/08 11:07:00;;;;;;;2.17;0.73;;;14.00;99.90;;;;;;5023274;28;20061;-69
2022/11/08 11:09:26;;;;;;;5.15;1.10;;;14.10;99.90;;;;;;5024353;28;20041;-71
2022/11/08 11:11:58;;;;;;;3.55;0.95;;;14.20;99.90;;;;;;5023207;28;20046;-70
2022/11/08 11:14:23;;;;;;;1.27;0.40;;;14.30;99.90;;;;;;5025098;28;20033;-70
2022/11/08 11:17:15;;;;;;;6.13;0.80;;;14.40;99.90;;;;;;5024551;28;20995;-70
2022/11/08 11:19:50;;;;;;;4.10;0.40;;;14.50;99.90;;;;;;5025484;28;20128;-70
2022/11/08 11:22:28;;;;;;;3.70;0.63;;;14.60;99.90;;;;;;5021057;28;20175;-69
2022/11/08 11:24:54;;;;;;;4.20;0.52;;;14.60;99.90;;;;;;5024253;28;20060;-70
2022/11/08 11:27:29;;;;;;;4.25;0.50;;;14.60;99.90;;;;;;5025275;28;20064;-70
2022/11/08 11:30:13;;;;;;;2.38;0.68;;;14.60;99.90;;;;;;5023008;28;20037;-68
2022/11/08 11:32:52;;;;;;;1.38;0.47;;;14.60;99.90;;;;;;5024985;28;20037;-68
2022/11/08 11:35:19;;;;;;;4.57;0.50;;;14.60;99.90;;;;;;5021833;28;20124;-68
2022/11/08 11:37:47;;;;;;;2.63;0.60;;;14.60;99.90;;;;;;5025387;28;20034;-69
2022/11/08 11:40:32;;;;;;;4.38;0.57;;;14.60;99.90;;;;;;5020357;28;20048;-69
2022/11/08 11:43:14;;;;;;;1.40;0.70;;;14.60;99.90;;;;;;5022563;28;20061;-70
2022/11/08 11:45:57;;;;;;;2.40;0.40;;;14.60;99.90;;;;;;5021114;28;20034;-69
2022/11/08 11:48:29;;;;;;;1.65;0.47;;;14.60;99.90;;;;;;5012206;28;20065;-68
2022/11/08 11:50:56;;;;;;;22.08;1.02;;;14.60;99.90;;;;;;5009679;28;20042;-71
2022/11/08 11:53:27;;;;;;;4.50;0.43;;;14.50;99.90;;;;;;5015094;28;20044;-69
2022/11/08 11:56:11;;;;;;;1.60;0.50;;;14.50;99.90;;;;;;5017380;28;20049;-70
2022/11/08 11:58:46;;;;;;;2.30;0.50;;;14.40;99.90;;;;;;5016874;28;20791;-69
2022/11/08 12:01:30;;;;;;;1.27;0.50;;;14.50;99.90;;;;;;5013937;28;20037;-69
2022/11/08 12:04:01;;;;;;;1.85;0.45;;;14.50;99.90;;;;;;5014802;28;20037;-69
2022/11/08 12:06:42;;;;;;;4.78;0.57;;;14.50;99.90;;;;;;5018565;28;20125;-69
2022/11/08 12:09:18;;;;;;;;;;;14.60;99.90;;;;;;5017080;28;20124;-70
2022/11/08 12:12:21;;;;;;;1.30;0.50;;;14.60;99.90;;;;;;5012764;28;20010;-69
2022/11/08 12:15:12;;;;;;;1.27;0.30;;;14.70;99.90;;;;;;5018231;28;20053;-70
2022/11/08 12:17:59;;;;;;;2.17;1.00;;;14.70;99.90;;;;;;5007970;28;20079;-69
2022/11/08 12:20:36;;;;;;;3.50;0.43;;;14.80;99.90;;;;;;5021737;28;20116;-68
2022/11/08 12:23:39;;;;;;;3.33;0.43;;;14.80;99.90;;;;;;5019814;28;20033;-68
2022/11/08 12:26:18;;;;;;;3.15;0.40;;;14.70;99.90;;;;;;5019426;28;20058;-69
2022/11/08 12:29:24;;;;;;;3.65;0.40;;;14.70;99.90;;;;;;5016668;28;20203;-70
2022/11/08 12:32:08;;;;;;;1.15;0.60;;;14.70;99.90;;;;;;5017752;28;20044;-70
2022/11/08 12:34:40;;;;;;;3.30;0.50;;;14.80;99.90;;;;;;5022041;28;20038;-70
2022/11/08 12:37:35;;;;;;;2.95;0.63;;;14.80;99.90;;;;;;5019768;28;20033;-69
2022/11/08 12:40:14;;;;;;;5.43;0.40;;;14.80;99.90;;;;;;5019747;28;20119;-68
2022/11/08 12:42:51;;;;;;;0.88;0.60;;;14.80;99.90;;;;;;5017668;28;20045;-69
2022/11/08 12:45:54;;;;;;;1.52;0.60;;;14.90;99.90;;;;;;5019241;28;20083;-69
2022/11/08 12:48:38;;;;;;;2.55;0.68;;;14.90;99.90;;;;;;5016947;28;20049;-68
2022/11/08 12:51:30;;;;;;;1.83;0.57;;;14.90;99.90;;;;;;5018609;28;20068;-70
2022/11/08 12:54:08;;;;;;;3.28;0.65;;;15.00;99.90;;;;;;5018711;28;20180;-68
2022/11/08 12:56:47;;;;;;;2.10;0.57;;;15.00;99.90;;;;;;5018919;28;20041;-71
2022/11/08 12:59:34;;;;;;;4.82;0.73;;;15.10;99.90;;;;;;5019036;28;20163;-68
2022/11/08 13:02:01;;;;;;;3.45;0.60;;;15.00;99.90;;;;;;5021030;28;20041;-68
2022/11/08 13:04:56;;;;;;;4.53;0.40;;;15.10;99.90;;;;;;5020729;28;20049;-69
2022/11/08 13:07:21;;;;;;;1.88;0.60;;;15.00;99.90;;;;;;5017468;28;20048;-70
2022/11/08 13:10:11;;;;;;;5.10;0.40;;;15.00;99.90;;;;;;5022845;28;20037;-70
2022/11/08 13:13:06;;;;;;;1.73;0.65;;;15.00;99.90;;;;;;5019245;28;20061;-69
2022/11/08 13:15:32;;;;;;;9.25;0.60;;;15.00;99.90;;;;;;5019250;28;20026;-69
2022/11/08 13:18:09;;;;;;;3.67;0.70;;;15.10;99.90;;;;;;5016579;28;20517;-70
2022/11/08 13:20:42;;;;;;;1.90;0.68;;;15.10;99.90;;;;;;5019393;28;20044;-69
2022/11/08 13:23:12;;;;;;;1.75;0.40;;;15.00;99.90;;;;;;5014392;28;20096;-71